Time;durP1;ratioP1;P1;durP2;ratioP2;P2;SDS_P1;SDS_P2;PMS_P1;PMS_P2;Temp;Humidity;BMP_temperature;BMP_pressure;BME280_temperature;BME280_humidity;BME280_pressure;Samples;Min_cycle;Max_cycle;Signal;HPM_P1;HPM_P2
2023/03/16 00:01:48;;;;;;;9.25;4.75;;;;;;;;;;5053416;28;21186;-58
2023/03/16 00:04:14;;;;;;;11.65;5.50;;;;;;;;;;5048676;28;20040;-58
2023/03/16 00:06:40;;;;;;;6.07;3.13;;;;;;;;;;5072503;28;20044;-58
2023/03/16 00:09:08;;;;;;;9.73;3.65;;;;;;;;;;5072992;28;20037;-58
2023/03/16 00:11:34;;;;;;;9.75;4.10;;;;;;;;;;5073819;28;20080;-58
2023/03/16 00:14:03;;;;;;;6.10;4.13;;;;;;;;;;5072334;28;20068;-58
2023/03/16 00:16:29;;;;;;;6.32;3.13;;;;;;;;;;5074476;28;20070;-58
2023/03/16 00:18:57;;;;;;;10.60;3.97;;;;;;;;;;5072646;28;20530;-58
2023/03/16 00:21:23;;;;;;;9.98;3.50;;;;;;;;;;5072609;28;20059;-58
2023/03/16 00:23:52;;;;;;;5.82;3.22;;;;;;;;;;5072397;28;20048;-59
2023/03/16 00:26:18;;;;;;;6.97;3.00;;;;;;;;;;5072995;28;20654;-58
2023/03/16 00:28:44;;;;;;;7.68;3.47;;;;;;;;;;5072485;28;20040;-58
2023/03/16 00:31:13;;;;;;;6.28;3.38;;;;;;;;;;5072041;28;20041;-58
2023/03/16 00:33:41;;;;;;;4.78;3.20;;;;;;;;;;5073563;28;20044;-58
2023/03/16 00:36:10;;;;;;;5.28;2.92;;;;;;;;;;5071826;28;20525;-58
2023/03/16 00:38:37;;;;;;;8.75;3.53;;;;;;;;;;5074160;28;20090;-58
2023/03/16 00:41:04;;;;;;;9.70;3.47;;;;;;;;;;5072550;28;20071;-58
2023/03/16 00:43:40;;;;;;;6.38;3.38;;;;;;;;;;5072644;28;20040;-58
2023/03/16 00:46:08;;;;;;;12.35;4.30;;;;;;;;;;5070333;28;20558;-58
2023/03/16 00:48:34;;;;;;;10.43;3.92;;;;;;;;;;5071857;28;20119;-59
2023/03/16 00:51:03;;;;;;;6.20;3.58;;;;;;;;;;5072725;28;20040;-60
2023/03/16 00:53:30;;;;;;;7.30;2.78;;;;;;;;;;5073464;28;20057;-58
2023/03/16 00:55:57;;;;;;;9.90;3.83;;;;;;;;;;5050100;28;20094;-58
2023/03/16 00:58:23;;;;;;;7.55;3.28;;;;;;;;;;5076203;28;20155;-58
2023/03/16 01:00:52;;;;;;;9.15;3.83;;;;;;;;;;5075072;28;20075;-57
2023/03/16 01:03:18;;;;;;;9.75;3.30;;;;;;;;;;5076116;28;20045;-58
2023/03/16 01:05:44;;;;;;;16.92;5.15;;;;;;;;;;5076030;28;20044;-58
2023/03/16 01:08:10;;;;;;;7.75;2.75;;;;;;;;;;5075473;28;20146;-58
2023/03/16 01:10:39;;;;;;;7.95;3.70;;;;;;;;;;5076107;28;20102;-58
2023/03/16 01:13:06;;;;;;;6.78;3.38;;;;;;;;;;5076684;28;20037;-58
2023/03/16 01:15:33;;;;;;;10.48;4.82;;;;;;;;;;5074592;28;20039;-58
2023/03/16 01:18:00;;;;;;;6.15;3.30;;;;;;;;;;5074627;28;20359;-58
2023/03/16 01:20:26;;;;;;;10.93;2.95;;;;;;;;;;5075107;28;20473;-58
2023/03/16 01:22:52;;;;;;;6.82;3.08;;;;;;;;;;5075036;28;20040;-58
2023/03/16 01:25:20;;;;;;;7.07;3.20;;;;;;;;;;5057867;28;20131;-58
2023/03/16 01:27:46;;;;;;;9.48;3.55;;;;;;;;;;5075808;28;20075;-58
2023/03/16 01:30:13;;;;;;;6.95;3.72;;;;;;;;;;5074156;28;21300;-58
2023/03/16 01:32:39;;;;;;;6.28;3.60;;;;;;;;;;5075565;28;20927;-58
2023/03/16 01:35:06;;;;;;;9.20;3.90;;;;;;;;;;5070396;28;20123;-59
2023/03/16 01:37:32;;;;;;;9.23;3.65;;;;;;;;;;5074212;28;20530;-58
2023/03/16 01:39:58;;;;;;;11.27;4.05;;;;;;;;;;5075548;28;20322;-58
2023/03/16 01:42:24;;;;;;;12.90;3.80;;;;;;;;;;5073999;28;21059;-58
2023/03/16 01:44:55;;;;;;;9.05;4.60;;;;;;;;;;5074775;28;20045;-58
2023/03/16 01:47:21;;;;;;;6.63;3.58;;;;;;;;;;5050815;28;20131;-58
2023/03/16 01:49:48;;;;;;;9.45;3.60;;;;;;;;;;5051032;28;21208;-58
2023/03/16 01:52:16;;;;;;;7.47;3.78;;;;;;;;;;5075174;28;20052;-59
2023/03/16 01:54:47;;;;;;;10.65;3.55;;;;;;;;;;5075559;28;20048;-58
2023/03/16 01:57:20;;;;;;;6.47;3.20;;;;;;;;;;5075968;28;20090;-58
2023/03/16 02:00:17;;;;;;;12.02;3.67;;;;;;;;;;5074063;28;20041;-58
2023/03/16 02:02:47;;;;;;;13.98;3.67;;;;;;;;;;5074311;28;21195;-58
2023/03/16 02:05:32;;;;;;;8.95;4.60;;;;;;;;;;5073865;28;20120;-58
2023/03/16 02:07:58;;;;;;;8.77;3.53;;;;;;;;;;5072385;28;20037;-58
2023/03/16 02:10:27;;;;;;;5.53;2.85;;;;;;;;;;5073940;28;20179;-58
2023/03/16 02:12:53;;;;;;;9.27;4.35;;;;;;;;;;5054601;28;20124;-58
2023/03/16 02:15:19;;;;;;;8.20;3.63;;;;;;;;;;5075001;28;20053;-58
2023/03/16 02:17:46;;;;;;;7.28;3.60;;;;;;;;;;5068505;28;20043;-58
2023/03/16 02:20:18;;;;;;;8.80;3.58;;;;;;;;;;5072218;28;20052;-58
2023/03/16 02:22:46;;;;;;;7.00;3.35;;;;;;;;;;5074308;28;20485;-58
2023/03/16 02:25:13;;;;;;;14.15;4.85;;;;;;;;;;5073650;28;20114;-58
2023/03/16 02:27:47;;;;;;;7.25;3.53;;;;;;;;;;5073051;28;20167;-58
2023/03/16 02:30:14;;;;;;;7.95;3.47;;;;;;;;;;5071935;28;20055;-58
2023/03/16 02:32:42;;;;;;;7.35;3.45;;;;;;;;;;5074186;28;20041;-60
2023/03/16 02:35:08;;;;;;;7.97;3.97;;;;;;;;;;5073680;28;20045;-58
2023/03/16 02:37:35;;;;;;;8.70;3.17;;;;;;;;;;5073273;28;20048;-58
2023/03/16 02:40:04;;;;;;;7.60;3.88;;;;;;;;;;5072260;28;20041;-58
2023/03/16 02:42:30;;;;;;;7.65;4.25;;;;;;;;;;5073214;28;20070;-58
2023/03/16 02:44:57;;;;;;;14.38;4.05;;;;;;;;;;5072741;28;21189;-58
2023/03/16 02:47:26;;;;;;;8.90;3.10;;;;;;;;;;5045971;28;20745;-58
2023/03/16 02:49:52;;;;;;;11.60;3.70;;;;;;;;;;5071144;28;20208;-58
2023/03/16 02:52:18;;;;;;;9.07;3.95;;;;;;;;;;5072780;28;20532;-59
2023/03/16 02:54:44;;;;;;;8.48;4.28;;;;;;;;;;5073314;28;20043;-58
2023/03/16 02:57:11;;;;;;;6.68;3.15;;;;;;;;;;5070913;28;20045;-58
2023/03/16 02:59:37;;;;;;;4.55;2.95;;;;;;;;;;5073186;28;20044;-58
2023/03/16 03:02:03;;;;;;;6.38;3.63;;;;;;;;;;5054327;28;20040;-58
2023/03/16 03:04:31;;;;;;;7.88;3.22;;;;;;;;;;5071848;28;20055;-58
2023/03/16 03:07:02;;;;;;;8.32;3.22;;;;;;;;;;5071875;28;20113;-59
2023/03/16 03:09:29;;;;;;;9.13;3.53;;;;;;;;;;5074012;28;20059;-58
2023/03/16 03:11:55;;;;;;;6.90;2.75;;;;;;;;;;5047617;28;20091;-58
2023/03/16 03:14:21;;;;;;;8.85;3.50;;;;;;;;;;5072454;28;20106;-58
2023/03/16 03:16:47;;;;;;;6.72;2.97;;;;;;;;;;5070418;28;20120;-58
2023/03/16 03:19:13;;;;;;;5.13;2.92;;;;;;;;;;5071154;28;20172;-58
2023/03/16 03:21:40;;;;;;;11.05;2.80;;;;;;;;;;5073192;28;20135;-58
2023/03/16 03:24:06;;;;;;;7.18;3.30;;;;;;;;;;5070660;28;20561;-58
2023/03/16 03:26:32;;;;;;;6.43;2.78;;;;;;;;;;5072495;28;20037;-58
2023/03/16 03:28:59;;;;;;;6.70;2.70;;;;;;;;;;5070483;28;20044;-58
2023/03/16 03:31:25;;;;;;;6.35;2.80;;;;;;;;;;5071481;28;20098;-58
2023/03/16 03:33:52;;;;;;;7.43;3.40;;;;;;;;;;5072108;28;20086;-60
2023/03/16 03:36:18;;;;;;;6.88;3.63;;;;;;;;;;5070436;28;20700;-58
2023/03/16 03:38:44;;;;;;;9.25;3.00;;;;;;;;;;5072418;28;20037;-61
2023/03/16 03:41:11;;;;;;;7.80;2.78;;;;;;;;;;5072453;28;20044;-59
2023/03/16 03:43:37;;;;;;;6.85;3.15;;;;;;;;;;5072020;28;20041;-58
2023/03/16 03:46:03;;;;;;;4.20;3.00;;;;;;;;;;5071541;28;20089;-58
2023/03/16 03:48:30;;;;;;;8.40;3.05;;;;;;;;;;5071252;28;20207;-58
2023/03/16 03:50:56;;;;;;;7.05;3.53;;;;;;;;;;5073057;28;20048;-58
2023/03/16 03:53:22;;;;;;;9.70;3.78;;;;;;;;;;5073818;28;20036;-58
2023/03/16 03:55:48;;;;;;;10.40;3.88;;;;;;;;;;5070958;28;20043;-58
2023/03/16 03:58:14;;;;;;;8.55;3.67;;;;;;;;;;5045138;28;20048;-58
2023/03/16 04:00:41;;;;;;;7.28;3.30;;;;;;;;;;5069664;28;20144;-58
2023/03/16 04:03:07;;;;;;;4.70;2.33;;;;;;;;;;5070819;28;20130;-58
2023/03/16 04:05:33;;;;;;;5.85;3.60;;;;;;;;;;5071987;28;20036;-59
2023/03/16 04:07:59;;;;;;;7.13;2.90;;;;;;;;;;5070162;28;20049;-58
2023/03/16 04:10:25;;;;;;;8.40;3.28;;;;;;;;;;5073368;28;20064;-58
2023/03/16 04:12:51;;;;;;;5.82;2.38;;;;;;;;;;5072161;28;20037;-60
2023/03/16 04:15:17;;;;;;;7.40;2.85;;;;;;;;;;5070717;28;20528;-58
2023/03/16 04:17:44;;;;;;;6.28;2.78;;;;;;;;;;5070957;28;20846;-58
2023/03/16 04:20:14;;;;;;;7.28;2.85;;;;;;;;;;5070981;28;20064;-58
2023/03/16 04:22:41;;;;;;;6.35;2.70;;;;;;;;;;5071814;28;20064;-59
2023/03/16 04:25:09;;;;;;;4.93;2.72;;;;;;;;;;5071463;28;20063;-58
2023/03/16 04:27:35;;;;;;;5.20;2.28;;;;;;;;;;5070794;28;20044;-58
2023/03/16 04:30:04;;;;;;;4.90;3.40;;;;;;;;;;5071286;28;20285;-58
2023/03/16 04:32:31;;;;;;;3.92;2.35;;;;;;;;;;5069736;28;20128;-58
2023/03/16 04:34:57;;;;;;;5.25;2.83;;;;;;;;;;5072267;28;20041;-58
2023/03/16 04:37:23;;;;;;;5.50;2.63;;;;;;;;;;5072093;28;20474;-58
2023/03/16 04:39:49;;;;;;;6.45;2.50;;;;;;;;;;5071117;28;20048;-58
2023/03/16 04:42:15;;;;;;;6.50;2.50;;;;;;;;;;5070738;28;20037;-58
2023/03/16 04:44:44;;;;;;;5.97;2.60;;;;;;;;;;5071279;28;20045;-58
2023/03/16 04:47:11;;;;;;;5.22;2.05;;;;;;;;;;5051067;28;20045;-59
2023/03/16 04:49:37;;;;;;;6.03;2.22;;;;;;;;;;5070216;28;20040;-58
2023/03/16 04:52:04;;;;;;;2.85;1.98;;;;;;;;;;5070705;28;20103;-58
2023/03/16 04:54:30;;;;;;;3.55;1.95;;;;;;;;;;5070710;28;20075;-58
2023/03/16 04:56:56;;;;;;;4.05;2.33;;;;;;;;;;5072410;28;20048;-58
2023/03/16 04:59:22;;;;;;;4.75;2.50;;;;;;;;;;5071223;28;20565;-59
2023/03/16 05:01:49;;;;;;;5.15;2.47;;;;;;;;;;5068889;28;20111;-58
2023/03/16 05:04:15;;;;;;;2.90;1.90;;;;;;;;;;5072875;28;20119;-60
2023/03/16 05:06:41;;;;;;;5.82;2.38;;;;;;;;;;5072297;28;20045;-59
2023/03/16 05:09:07;;;;;;;8.38;1.90;;;;;;;;;;5071513;28;20802;-58
2023/03/16 05:11:34;;;;;;;6.68;2.60;;;;;;;;;;5070598;28;20605;-58
2023/03/16 05:14:01;;;;;;;6.03;2.08;;;;;;;;;;5071637;28;20120;-58
2023/03/16 05:16:27;;;;;;;7.00;2.17;;;;;;;;;;5068800;28;20045;-58
2023/03/16 05:18:54;;;;;;;3.80;1.88;;;;;;;;;;5072306;28;20451;-58
2023/03/16 05:21:20;;;;;;;5.85;2.45;;;;;;;;;;5069324;28;20665;-58
2023/03/16 05:23:46;;;;;;;5.00;1.90;;;;;;;;;;5072291;28;20044;-58
2023/03/16 05:26:12;;;;;;;6.65;2.13;;;;;;;;;;5070181;28;20747;-58
2023/03/16 05:28:39;;;;;;;5.25;2.28;;;;;;;;;;5073059;28;20056;-58
2023/03/16 05:31:05;;;;;;;7.82;2.15;;;;;;;;;;5070789;28;20047;-59
2023/03/16 05:33:31;;;;;;;7.07;4.20;;;;;;;;;;5072606;28;20136;-58
2023/03/16 05:35:57;;;;;;;4.65;2.78;;;;;;;;;;5071345;28;20438;-59
2023/03/16 05:38:26;;;;;;;4.25;1.90;;;;;;;;;;5071994;28;20528;-59
2023/03/16 05:40:53;;;;;;;5.22;2.28;;;;;;;;;;5072283;28;20044;-59
2023/03/16 05:43:20;;;;;;;5.15;2.03;;;;;;;;;;5075191;28;20051;-61
2023/03/16 05:45:46;;;;;;;4.75;2.63;;;;;;;;;;5072716;28;20045;-58
2023/03/16 05:48:13;;;;;;;4.53;2.13;;;;;;;;;;5072556;28;20110;-58
2023/03/16 05:50:40;;;;;;;10.50;4.10;;;;;;;;;;5073768;28;20044;-58
2023/03/16 05:53:06;;;;;;;5.30;2.28;;;;;;;;;;5074738;28;20079;-58
2023/03/16 05:55:32;;;;;;;6.35;2.60;;;;;;;;;;5075380;28;20048;-58
2023/03/16 05:57:59;;;;;;;6.50;2.50;;;;;;;;;;5074183;28;20037;-58
2023/03/16 06:00:26;;;;;;;6.40;2.15;;;;;;;;;;5072281;28;20039;-58
2023/03/16 06:02:52;;;;;;;3.88;2.25;;;;;;;;;;5073253;28;20041;-58
2023/03/16 06:05:20;;;;;;;5.15;1.90;;;;;;;;;;5074429;28;20045;-58
2023/03/16 06:07:46;;;;;;;6.03;2.95;;;;;;;;;;5057038;28;20648;-58
2023/03/16 06:10:13;;;;;;;3.45;1.67;;;;;;;;;;5073781;28;20060;-58
2023/03/16 06:12:40;;;;;;;3.22;1.75;;;;;;;;;;5076654;28;20071;-58
2023/03/16 06:15:06;;;;;;;2.50;1.80;;;;;;;;;;5073544;28;20060;-58
2023/03/16 06:17:33;;;;;;;6.90;1.88;;;;;;;;;;5073874;28;20578;-58
2023/03/16 06:19:59;;;;;;;3.88;1.60;;;;;;;;;;5073790;28;20095;-58
2023/03/16 06:22:25;;;;;;;5.90;2.55;;;;;;;;;;5057025;28;20044;-58
2023/03/16 06:24:51;;;;;;;8.02;1.92;;;;;;;;;;5072480;28;20047;-58
2023/03/16 06:27:19;;;;;;;4.65;2.70;;;;;;;;;;5071578;28;20641;-58
2023/03/16 06:29:45;;;;;;;2.58;1.52;;;;;;;;;;5051311;28;20036;-58
2023/03/16 06:32:11;;;;;;;4.65;2.28;;;;;;;;;;5069238;28;20044;-58
2023/03/16 06:34:37;;;;;;;5.65;1.98;;;;;;;;;;5071507;28;20051;-59
2023/03/16 06:37:03;;;;;;;3.78;2.10;;;;;;;;;;5071087;28;20040;-59
2023/03/16 06:39:30;;;;;;;2.58;2.03;;;;;;;;;;5071255;28;20936;-58
2023/03/16 06:41:56;;;;;;;5.60;1.70;;;;;;;;;;5071910;28;20044;-58
2023/03/16 06:44:22;;;;;;;12.90;2.90;;;;;;;;;;5072010;28;21218;-58
2023/03/16 06:46:48;;;;;;;3.03;1.50;;;;;;;;;;5074562;28;20149;-58
2023/03/16 06:49:14;;;;;;;6.15;1.98;;;;;;;;;;5073765;28;20554;-58
2023/03/16 06:51:40;;;;;;;2.88;1.65;;;;;;;;;;5074239;28;20040;-58
2023/03/16 06:54:06;;;;;;;7.47;2.53;;;;;;;;;;5072884;28;20095;-58
2023/03/16 06:56:33;;;;;;;3.97;1.48;;;;;;;;;;5073271;28;20127;-58
2023/03/16 06:59:00;;;;;;;4.20;1.77;;;;;;;;;;5074232;28;20040;-58
2023/03/16 07:01:26;;;;;;;5.80;1.63;;;;;;;;;;5071660;28;20040;-58
2023/03/16 07:03:53;;;;;;;6.95;1.75;;;;;;;;;;5074509;28;20052;-58
2023/03/16 07:06:19;;;;;;;5.45;1.58;;;;;;;;;;5065851;28;20055;-58
2023/03/16 07:08:46;;;;;;;5.28;1.60;;;;;;;;;;5072250;28;20039;-58
2023/03/16 07:11:13;;;;;;;5.35;2.38;;;;;;;;;;5072420;28;20194;-58
2023/03/16 07:13:39;;;;;;;5.47;1.63;;;;;;;;;;5073543;28;20629;-58
2023/03/16 07:16:06;;;;;;;3.85;1.55;;;;;;;;;;5071419;28;20043;-58
2023/03/16 07:18:32;;;;;;;4.80;1.95;;;;;;;;;;5074329;28;20047;-58
2023/03/16 07:20:58;;;;;;;2.72;1.27;;;;;;;;;;5068004;28;21054;-58
2023/03/16 07:23:24;;;;;;;4.80;1.75;;;;;;;;;;5072279;28;20120;-58
2023/03/16 07:25:51;;;;;;;4.32;1.30;;;;;;;;;;5071247;28;20709;-59
2023/03/16 07:28:17;;;;;;;2.28;1.40;;;;;;;;;;5069300;28;20056;-58
2023/03/16 07:30:44;;;;;;;11.50;1.70;;;;;;;;;;5069700;28;20052;-58
2023/03/16 07:33:11;;;;;;;4.28;1.75;;;;;;;;;;5070103;28;20530;-58
2023/03/16 07:35:37;;;;;;;7.88;1.60;;;;;;;;;;5045713;28;20040;-58
2023/03/16 07:38:03;;;;;;;2.47;1.45;;;;;;;;;;5068945;28;20047;-58
2023/03/16 07:40:29;;;;;;;4.43;1.38;;;;;;;;;;5053993;28;20036;-58
2023/03/16 07:42:55;;;;;;;4.13;1.63;;;;;;;;;;5072807;28;20184;-58
2023/03/16 07:45:22;;;;;;;8.75;2.10;;;;;;;;;;5069769;28;20105;-60
2023/03/16 07:47:48;;;;;;;3.70;1.70;;;;;;;;;;5065743;28;20091;-58
2023/03/16 07:50:15;;;;;;;2.80;1.15;;;;;;;;;;5050173;28;20119;-58
2023/03/16 07:52:42;;;;;;;4.70;2.00;;;;;;;;;;5071820;28;20056;-58
2023/03/16 07:55:09;;;;;;;3.85;2.40;;;;;;;;;;5072855;28;20041;-58
2023/03/16 07:57:35;;;;;;;2.47;1.08;;;;;;;;;;5075453;28;20118;-58
2023/03/16 08:00:04;;;;;;;4.15;1.45;;;;;;;;;;5056745;28;20113;-58
2023/03/16 08:02:30;;;;;;;4.00;1.70;;;;;;;;;;5075496;28;20052;-58
2023/03/16 08:04:56;;;;;;;3.03;1.67;;;;;;;;;;5075539;28;20044;-58
2023/03/16 08:07:22;;;;;;;6.40;2.10;;;;;;;;;;5074759;28;20044;-58
2023/03/16 08:09:48;;;;;;;5.05;1.40;;;;;;;;;;5074434;28;20049;-58
2023/03/16 08:12:14;;;;;;;4.22;1.67;;;;;;;;;;5074290;28;20052;-58
2023/03/16 08:14:40;;;;;;;2.33;1.50;;;;;;;;;;5055803;28;20047;-58
2023/03/16 08:17:07;;;;;;;3.95;1.30;;;;;;;;;;5074818;28;20071;-58
2023/03/16 08:19:33;;;;;;;4.30;1.95;;;;;;;;;;5076324;28;20144;-59
2023/03/16 08:22:02;;;;;;;8.55;2.05;;;;;;;;;;5075654;28;20040;-58
2023/03/16 08:24:29;;;;;;;2.78;1.65;;;;;;;;;;5075614;28;20529;-58
2023/03/16 08:26:56;;;;;;;6.38;1.85;;;;;;;;;;5058231;28;20067;-58
2023/03/16 08:29:23;;;;;;;2.67;1.63;;;;;;;;;;5074206;28;20171;-58
2023/03/16 08:31:49;;;;;;;2.20;1.52;;;;;;;;;;5076197;28;20044;-58
2023/03/16 08:34:16;;;;;;;2.60;1.50;;;;;;;;;;5056782;28;20040;-58
2023/03/16 08:37:05;;;;;;;4.82;1.88;;;;;;;;;;5076652;28;20149;-58
2023/03/16 08:39:32;;;;;;;4.70;3.50;;;;;;;;;;5073899;28;20036;-58
2023/03/16 08:41:58;;;;;;;5.00;1.65;;;;;;;;;;5074267;28;20050;-58
2023/03/16 08:44:25;;;;;;;8.05;2.97;;;;;;;;;;5073789;28;20148;-58
2023/03/16 08:46:51;;;;;;;5.93;1.90;;;;;;;;;;5075420;28;20079;-58
2023/03/16 08:49:19;;;;;;;3.92;1.38;;;;;;;;;;5074058;28;20106;-58
2023/03/16 08:51:46;;;;;;;3.90;1.50;;;;;;;;;;5075264;28;20052;-58
2023/03/16 08:54:12;;;;;;;7.03;2.30;;;;;;;;;;5073850;28;20037;-58
2023/03/16 08:56:38;;;;;;;4.45;1.67;;;;;;;;;;5048295;28;20558;-58
2023/03/16 08:59:04;;;;;;;4.90;1.50;;;;;;;;;;5073180;28;20044;-58
2023/03/16 09:01:30;;;;;;;3.42;1.98;;;;;;;;;;5072065;28;20044;-58
2023/03/16 09:03:57;;;;;;;4.40;1.50;;;;;;;;;;5073610;28;20048;-58
2023/03/16 09:06:23;;;;;;;5.15;1.80;;;;;;;;;;5074869;28;20691;-58
2023/03/16 09:08:49;;;;;;;5.63;2.05;;;;;;;;;;5073557;28;20944;-59
2023/03/16 09:11:16;;;;;;;3.55;2.20;;;;;;;;;;5074173;28;20056;-58
2023/03/16 09:13:43;;;;;;;5.25;2.33;;;;;;;;;;5073399;28;20043;-58
2023/03/16 09:16:10;;;;;;;5.90;1.92;;;;;;;;;;5074264;28;20068;-58
2023/03/16 09:18:37;;;;;;;6.20;1.58;;;;;;;;;;5077961;28;20046;-59
2023/03/16 09:21:06;;;;;;;5.28;1.88;;;;;;;;;;5077404;28;20133;-58
2023/03/16 09:23:33;;;;;;;6.88;2.20;;;;;;;;;;5078257;28;20051;-58
2023/03/16 09:26:01;;;;;;;4.60;2.92;;;;;;;;;;5077033;28;20047;-58
2023/03/16 09:28:28;;;;;;;6.47;2.50;;;;;;;;;;5079161;28;20049;-58
2023/03/16 09:30:54;;;;;;;4.00;1.92;;;;;;;;;;5077520;28;20120;-59
2023/03/16 09:33:23;;;;;;;4.03;2.38;;;;;;;;;;5078423;28;20123;-58
2023/03/16 09:35:50;;;;;;;9.43;3.45;;;;;;;;;;5078381;28;20105;-58
2023/03/16 09:38:17;;;;;;;4.90;2.83;;;;;;;;;;5077785;28;20043;-58
2023/03/16 09:40:43;;;;;;;5.53;2.08;;;;;;;;;;5077532;28;20163;-58
2023/03/16 09:43:13;;;;;;;5.45;2.08;;;;;;;;;;5077987;28;20044;-58
2023/03/16 09:45:48;;;;;;;4.40;1.88;;;;;;;;;;5077839;28;20828;-58
2023/03/16 09:48:15;;;;;;;4.90;2.33;;;;;;;;;;5059258;28;20090;-58
2023/03/16 09:50:42;;;;;;;11.43;3.58;;;;;;;;;;5077307;28;20568;-58
2023/03/16 09:53:20;;;;;;;7.00;2.47;;;;;;;;;;5059150;28;20036;-58
2023/03/16 09:55:48;;;;;;;5.78;2.28;;;;;;;;;;5058510;28;20044;-58
2023/03/16 09:58:20;;;;;;;4.30;2.17;;;;;;;;;;5060029;28;20037;-58
2023/03/16 10:00:58;;;;;;;4.03;1.38;;;;;;;;;;5077720;28;20506;-59
2023/03/16 10:03:28;;;;;;;6.38;1.70;;;;;;;;;;5076934;28;20064;-59
2023/03/16 10:06:05;;;;;;;6.30;1.77;;;;;;;;;;5076277;28;20037;-58
2023/03/16 10:08:39;;;;;;;6.10;2.10;;;;;;;;;;5077907;28;20040;-59
2023/03/16 10:11:05;;;;;;;5.15;2.25;;;;;;;;;;5075414;28;20546;-58
2023/03/16 10:13:34;;;;;;;4.55;2.08;;;;;;;;;;5074898;28;20589;-58
2023/03/16 10:16:02;;;;;;;6.25;2.38;;;;;;;;;;5075841;28;20048;-59
2023/03/16 10:18:35;;;;;;;4.95;2.67;;;;;;;;;;5076479;28;20047;-58
2023/03/16 10:21:02;;;;;;;3.15;1.83;;;;;;;;;;5077281;28;20041;-59
2023/03/16 10:23:30;;;;;;;5.40;1.90;;;;;;;;;;5076936;28;20576;-59
2023/03/16 10:25:56;;;;;;;4.32;2.10;;;;;;;;;;5076450;28;20706;-58
2023/03/16 10:28:26;;;;;;;7.55;2.17;;;;;;;;;;5075295;28;21141;-58
2023/03/16 10:30:54;;;;;;;5.75;1.83;;;;;;;;;;5075359;28;20101;-58
2023/03/16 10:33:24;;;;;;;8.85;1.92;;;;;;;;;;5075696;28;20033;-58
2023/03/16 10:36:05;;;;;;;3.20;1.80;;;;;;;;;;5076551;28;20101;-58
2023/03/16 10:38:37;;;;;;;6.63;1.70;;;;;;;;;;5076176;28;20703;-58
2023/03/16 10:41:24;;;;;;;8.23;2.17;;;;;;;;;;5075113;28;20600;-58
2023/03/16 10:44:07;;;;;;;4.50;1.77;;;;;;;;;;5059885;28;20059;-58
2023/03/16 10:47:00;;;;;;;6.53;1.85;;;;;;;;;;5075207;28;20111;-58
2023/03/16 10:49:45;;;;;;;3.95;1.70;;;;;;;;;;5071653;28;20155;-58
2023/03/16 10:52:18;;;;;;;12.00;2.80;;;;;;;;;;5076172;28;20049;-58
2023/03/16 10:54:58;;;;;;;4.43;1.77;;;;;;;;;;5076282;28;20090;-58
2023/03/16 10:57:35;;;;;;;4.65;1.92;;;;;;;;;;5076417;28;20120;-58
2023/03/16 11:00:15;;;;;;;5.40;1.70;;;;;;;;;;5074363;28;20561;-59
2023/03/16 11:02:41;;;;;;;4.15;1.67;;;;;;;;;;5038757;28;20070;-58
2023/03/16 11:05:12;;;;;;;6.68;2.08;;;;;;;;;;5075380;28;20048;-58
2023/03/16 11:07:38;;;;;;;2.97;1.75;;;;;;;;;;5074452;28;20045;-59
2023/03/16 11:10:13;;;;;;;5.43;1.80;;;;;;;;;;5074372;28;20881;-58
2023/03/16 11:12:39;;;;;;;7.90;2.00;;;;;;;;;;5074101;28;20369;-58
2023/03/16 11:15:12;;;;;;;9.55;1.80;;;;;;;;;;5072291;28;20094;-58
2023/03/16 11:17:43;;;;;;;3.90;1.88;;;;;;;;;;5075129;28;20106;-58
2023/03/16 11:20:35;;;;;;;3.53;2.05;;;;;;;;;;5074631;28;20514;-58
2023/03/16 11:23:02;;;;;;;4.07;1.90;;;;;;;;;;5070656;28;20059;-59
2023/03/16 11:25:45;;;;;;;3.65;2.20;;;;;;;;;;5073469;28;20044;-58
2023/03/16 11:28:15;;;;;;;4.95;1.73;;;;;;;;;;5075658;28;20040;-58
2023/03/16 11:30:55;;;;;;;6.15;2.15;;;;;;;;;;5073266;28;20032;-59
2023/03/16 11:33:26;;;;;;;6.03;2.50;;;;;;;;;;5074340;28;20859;-58
2023/03/16 11:35:52;;;;;;;4.13;1.73;;;;;;;;;;5057416;28;20051;-58
2023/03/16 11:38:36;;;;;;;4.97;1.70;;;;;;;;;;5074959;28;20036;-58
2023/03/16 11:41:15;;;;;;;4.20;1.60;;;;;;;;;;5075030;28;20040;-58
2023/03/16 11:43:48;;;;;;;5.47;1.90;;;;;;;;;;5075409;28;20051;-58
2023/03/16 11:46:14;;;;;;;6.32;2.03;;;;;;;;;;5075431;28;20064;-58
2023/03/16 11:48:50;;;;;;;3.70;1.67;;;;;;;;;;5076781;28;20044;-58
2023/03/16 11:51:22;;;;;;;3.75;2.17;;;;;;;;;;5076622;28;20052;-58
2023/03/16 11:53:48;;;;;;;4.82;1.73;;;;;;;;;;5076473;28;20048;-58
2023/03/16 11:56:33;;;;;;;7.35;1.98;;;;;;;;;;5076441;28;20033;-58
2023/03/16 11:59:03;;;;;;;4.53;1.90;;;;;;;;;;5076034;28;21300;-58
2023/03/16 12:01:47;;;;;;;3.42;1.55;;;;;;;;;;5076075;28;20055;-58
2023/03/16 12:04:32;;;;;;;5.13;1.52;;;;;;;;;;5074881;28;20912;-58
2023/03/16 12:07:04;;;;;;;4.93;2.00;;;;;;;;;;5076542;28;20119;-58
2023/03/16 12:09:30;;;;;;;;;;;;;;;;;;5076965;28;20098;-58
2023/03/16 12:11:58;;;;;;;5.45;2.22;;;;;;;;;;5076460;28;19920;-58
2023/03/16 12:14:29;;;;;;;4.50;1.80;;;;;;;;;;5074123;28;20288;-58
2023/03/16 12:16:56;;;;;;;2.55;1.50;;;;;;;;;;5075965;28;20044;-58
2023/03/16 12:19:43;;;;;;;3.40;1.40;;;;;;;;;;5073858;28;20063;-58
2023/03/16 12:22:28;;;;;;;4.50;1.80;;;;;;;;;;5074964;28;20143;-58
2023/03/16 12:24:54;;;;;;;5.65;1.92;;;;;;;;;;5074318;28;20075;-59
2023/03/16 12:27:23;;;;;;;2.55;1.48;;;;;;;;;;5076128;28;20128;-58
2023/03/16 12:30:02;;;;;;;6.95;2.05;;;;;;;;;;5049137;28;20688;-59
2023/03/16 12:32:37;;;;;;;5.03;3.00;;;;;;;;;;5073748;28;20518;-58
2023/03/16 12:35:15;;;;;;;4.25;1.95;;;;;;;;;;5073204;28;20040;-61
2023/03/16 12:37:47;;;;;;;7.22;1.80;;;;;;;;;;5055690;28;20044;-58
2023/03/16 12:40:14;;;;;;;;;;;;;;;;;;5073272;28;20041;-58
2023/03/16 12:42:58;;;;;;;4.50;2.10;;;;;;;;;;5075096;28;19975;-58
2023/03/16 12:45:28;;;;;;;3.80;1.83;;;;;;;;;;5073490;28;20052;-58
2023/03/16 12:48:01;;;;;;;5.18;1.70;;;;;;;;;;5073093;28;20040;-58
2023/03/16 12:50:27;;;;;;;2.10;1.27;;;;;;;;;;5073558;28;20126;-58
2023/03/16 12:52:54;;;;;;;5.70;1.80;;;;;;;;;;5057085;28;20163;-58
2023/03/16 12:55:35;;;;;;;3.33;1.70;;;;;;;;;;5074043;28;20048;-58
2023/03/16 12:58:05;;;;;;;7.20;2.73;;;;;;;;;;5071923;28;20040;-58
2023/03/16 13:00:36;;;;;;;5.85;2.20;;;;;;;;;;5072645;28;20049;-58
2023/03/16 13:03:03;;;;;;;6.35;2.97;;;;;;;;;;5050175;28;20114;-58
2023/03/16 13:05:34;;;;;;;5.07;2.10;;;;;;;;;;5073206;28;20040;-58
2023/03/16 13:08:05;;;;;;;3.53;2.25;;;;;;;;;;5074540;28;20660;-58
2023/03/16 13:10:32;;;;;;;2.75;1.85;;;;;;;;;;5071876;28;20128;-58
2023/03/16 13:13:07;;;;;;;4.80;2.13;;;;;;;;;;5074176;28;20040;-58
2023/03/16 13:15:33;;;;;;;2.85;1.67;;;;;;;;;;5073006;28;20562;-58
2023/03/16 13:18:23;;;;;;;3.53;1.55;;;;;;;;;;5074210;28;20036;-58
2023/03/16 13:20:57;;;;;;;7.32;1.63;;;;;;;;;;5061460;28;21191;-58
2023/03/16 13:23:24;;;;;;;5.88;2.95;;;;;;;;;;5073407;28;20155;-58
2023/03/16 13:26:06;;;;;;;4.35;1.50;;;;;;;;;;5073471;28;20047;-58
2023/03/16 13:28:34;;;;;;;4.85;2.00;;;;;;;;;;5074250;28;20045;-58
2023/03/16 13:31:01;;;;;;;7.97;2.10;;;;;;;;;;5073103;28;20033;-58
2023/03/16 13:33:29;;;;;;;5.40;2.15;;;;;;;;;;5072888;28;20050;-58
2023/03/16 13:35:56;;;;;;;4.78;1.63;;;;;;;;;;5073514;28;21284;-58
2023/03/16 13:38:27;;;;;;;13.23;2.95;;;;;;;;;;5074642;28;20131;-58
2023/03/16 13:40:55;;;;;;;8.77;4.90;;;;;;;;;;5074878;28;20040;-58
2023/03/16 13:43:27;;;;;;;6.35;2.15;;;;;;;;;;5074279;28;20037;-58
2023/03/16 13:45:53;;;;;;;;;;;;;;;;;;5072895;28;20048;-58
2023/03/16 13:48:19;;;;;;;5.30;2.03;;;;;;;;;;5074944;28;19927;-57
2023/03/16 13:50:50;;;;;;;6.72;1.70;;;;;;;;;;5075043;28;20526;-58
2023/03/16 13:53:24;;;;;;;5.13;2.75;;;;;;;;;;5056728;28;20045;-58
2023/03/16 13:55:51;;;;;;;4.63;1.98;;;;;;;;;;5074417;28;20048;-58
2023/03/16 13:58:23;;;;;;;4.22;2.10;;;;;;;;;;5056152;28;20041;-58
2023/03/16 14:00:49;;;;;;;10.00;2.58;;;;;;;;;;5074607;28;20047;-62
2023/03/16 14:03:17;;;;;;;4.40;3.05;;;;;;;;;;5077962;28;20126;-58
2023/03/16 14:05:43;;;;;;;4.80;2.45;;;;;;;;;;5078254;28;20064;-58
2023/03/16 14:08:16;;;;;;;4.63;2.10;;;;;;;;;;5076839;28;20037;-58
2023/03/16 14:10:44;;;;;;;4.65;2.60;;;;;;;;;;5077063;28;20542;-58
2023/03/16 14:13:22;;;;;;;4.40;2.13;;;;;;;;;;5057620;28;20564;-58
2023/03/16 14:15:49;;;;;;;6.38;3.25;;;;;;;;;;5074567;28;20056;-58
2023/03/16 14:18:20;;;;;;;8.18;3.70;;;;;;;;;;5075663;28;20557;-58
2023/03/16 14:20:47;;;;;;;9.45;4.43;;;;;;;;;;5052239;28;20044;-58
2023/03/16 14:23:17;;;;;;;13.90;3.92;;;;;;;;;;5076099;28;20494;-58
2023/03/16 14:25:43;;;;;;;8.50;3.50;;;;;;;;;;5076065;28;20141;-57
2023/03/16 14:28:13;;;;;;;6.22;3.17;;;;;;;;;;5075345;28;20050;-57
2023/03/16 14:30:49;;;;;;;16.58;4.38;;;;;;;;;;5075600;28;20047;-58
2023/03/16 14:33:29;;;;;;;15.40;5.90;;;;;;;;;;5059376;28;20542;-58
2023/03/16 14:35:57;;;;;;;9.88;5.20;;;;;;;;;;5050035;28;20416;-58
2023/03/16 14:38:39;;;;;;;11.43;5.28;;;;;;;;;;5076806;28;20051;-58
2023/03/16 14:41:07;;;;;;;;;;;;;;;;;;5077243;28;20052;-58
2023/03/16 14:43:35;;;;;;;6.35;4.25;;;;;;;;;;5076437;28;20093;-58
2023/03/16 14:46:05;;;;;;;8.70;5.40;;;;;;;;;;5074431;28;20048;-58
2023/03/16 14:48:32;;;;;;;6.72;4.22;;;;;;;;;;5074932;28;20044;-58
2023/03/16 14:51:00;;;;;;;7.43;4.95;;;;;;;;;;5075420;28;20053;-58
2023/03/16 14:53:27;;;;;;;9.07;5.38;;;;;;;;;;5074525;28;20128;-58